< < Back
Terminal Aerodrome Forecast


Current Version              Previous Versions:   1  2  3  4  5  6  7  8  9  

Terminal Aerodrome Forecast

488
FTUS42 KJAX 020258 AAA
TAFGNV
TAF AMD
KGNV 020258Z 0203/0224 16006KT P6SM VCSH SCT012 BKN020 OVC050
     FM020600 18006KT P6SM VCSH SCT008 BKN015
     FM021400 22010G17KT P6SM VCTS OVC030CB
      TEMPO 0214/0218 3SM TSRA BKN015CB OVC030=



Latest METAR

729
SAUS70 KWBC 020600 RRG
MTRGNV
METAR KGNV 020553Z AUTO 16009KT 10SM OVC011 24/22 A2990 RMK AO2 SLP123
T02390222 10244 20239 56008 $


USA.gov is the U.S. government's official web portal to all federal, state and local government web resources and services.